Athol, Pennsylvania
Current Conditions -  °F | °C
As of 6:54 PM on Friday 31 Oct 2014 (Local Time) from KPTW Reporting Station
Overcast Overcast  
Wind Chill: 48°   Ceiling: 4000
Heat Index: 48°   Visibility: 10mi
Dew Point: 36°   Wind: 3mph
Humidity: 63%   Direction: 30°NNE
Pressure: 29.91"   Gusts: NA
Location:  40.3194°N, 75.7364°W
Report Text: KPTW 312254Z AUTO 03003KT 10SM BKN040 BKN048 OVC060 09/02 A2991 RMK AO2 SLP127 T00890022
Loading
Personal Weather Stations






























Interactive Weather Map
Tropical Storm Tracking
New forecast layout! Learn more

10-Day Weather Forecast

Advertisements
Track Severe Weather on mobile